Time;durP1;ratioP1;P1;durP2;ratioP2;P2;SDS_P1;SDS_P2;PMS_P1;PMS_P2;Temp;Humidity;BMP_temperature;BMP_pressure;BME280_temperature;BME280_humidity;BME280_pressure;Samples;Min_cycle;Max_cycle;Signal;HPM_P1;HPM_P2
2023/05/12 00:00:23;;;;;;;9.48;8.38;;;;;;;11.32;100.00;101612.50;4994864;28;20524;-46
2023/05/12 00:02:48;;;;;;;11.50;8.68;;;;;;;11.43;100.00;101635.09;4994467;28;20041;-50
2023/05/12 00:05:13;;;;;;;12.32;8.77;;;;;;;11.58;100.00;101658.47;4994434;28;20128;-48
2023/05/12 00:07:38;;;;;;;13.00;9.30;;;;;;;11.24;100.00;101607.41;4994919;28;20114;-47
2023/05/12 00:10:05;;;;;;;10.68;8.48;;;;;;;11.21;100.00;101612.75;4993852;28;20054;-46
2023/05/12 00:12:31;;;;;;;10.82;8.32;;;;;;;11.50;100.00;101662.19;5014130;28;20493;-45
2023/05/12 00:14:56;;;;;;;13.40;8.20;;;;;;;11.36;100.00;101651.06;5014262;28;20104;-46
2023/05/12 00:17:21;;;;;;;9.32;8.23;;;;;;;11.42;100.00;101656.19;5014062;28;20470;-45
2023/05/12 00:19:47;;;;;;;11.93;8.65;;;;;;;11.42;100.00;101667.63;4996349;28;20473;-47
2023/05/12 00:22:13;;;;;;;14.80;8.57;;;;;;;11.22;100.00;101638.19;5014149;28;20099;-45
2023/05/12 00:24:39;;;;;;;9.43;8.32;;;;;;;10.99;100.00;101596.56;4994761;28;20042;-46
2023/05/12 00:27:05;;;;;;;9.15;8.23;;;;;;;10.96;100.00;101601.91;5013676;28;20064;-45
2023/05/12 00:29:31;;;;;;;10.00;8.82;;;;;;;10.95;100.00;101601.91;5013412;28;20136;-45
2023/05/12 00:31:57;;;;;;;10.52;8.30;;;;;;;11.29;100.00;101660.91;5014060;28;20041;-46
2023/05/12 00:34:22;;;;;;;9.45;8.15;;;;;;;11.23;100.00;101656.63;5013675;28;20044;-44
2023/05/12 00:36:47;;;;;;;11.23;8.32;;;;;;;11.25;100.00;101654.81;4979730;28;20033;-44
2023/05/12 00:39:13;;;;;;;10.90;8.73;;;;;;;10.93;100.00;101604.59;5013743;28;20076;-45
2023/05/12 00:41:38;;;;;;;10.00;7.93;;;;;;;11.21;100.00;101654.91;5009232;28;20049;-44
2023/05/12 00:44:04;;;;;;;9.77;7.20;;;;;;;11.21;100.00;101641.72;4994021;28;20045;-46
2023/05/12 00:46:29;;;;;;;8.52;7.35;;;;;;;11.19;100.00;101662.84;4995744;28;20083;-48
2023/05/12 00:48:55;;;;;;;11.48;7.60;;;;;;;11.18;100.00;101647.06;5013449;28;20092;-51
2023/05/12 00:51:20;;;;;;;9.93;7.18;;;;;;;11.15;100.00;101650.63;5013571;28;20065;-49
2023/05/12 00:53:47;;;;;;;9.20;6.70;;;;;;;10.79;100.00;101582.97;4996168;28;20393;-46
2023/05/12 00:56:12;;;;;;;8.18;7.15;;;;;;;11.11;100.00;101648.13;5013569;28;20037;-45
2023/05/12 00:58:37;;;;;;;6.88;6.13;;;;;;;10.82;100.00;101596.06;5010067;28;20124;-50
2023/05/12 01:01:06;;;;;;;8.63;6.70;;;;;;;11.07;100.00;101652.56;4993633;28;20073;-47
2023/05/12 01:03:31;;;;;;;9.27;6.20;;;;;;;11.05;100.00;101645.63;4993625;28;20065;-49
2023/05/12 01:06:07;;;;;;;8.15;6.55;;;;;;;11.04;100.00;101647.38;5012603;28;20073;-45
2023/05/12 01:08:33;;;;;;;9.93;6.75;;;;;;;10.82;100.00;101613.63;4995228;28;20030;-44
2023/05/12 01:10:59;;;;;;;8.82;6.15;;;;;;;11.02;100.00;101645.69;5013035;28;20045;-44
2023/05/12 01:13:26;;;;;;;7.43;6.05;;;;;;;11.00;100.00;101645.72;5013158;28;20149;-49
2023/05/12 01:15:52;;;;;;;7.05;6.35;;;;;;;11.06;100.00;101640.28;5000869;28;20105;-48
2023/05/12 01:18:19;;;;;;;8.85;6.00;;;;;;;10.69;100.00;101598.09;4976018;28;20281;-46
2023/05/12 01:20:45;;;;;;;7.25;6.03;;;;;;;10.59;100.00;101571.97;4976322;28;20038;-44
2023/05/12 01:23:12;;;;;;;7.85;5.80;;;;;;;10.60;100.00;101577.19;4975968;28;20496;-45
2023/05/12 01:25:38;;;;;;;7.28;5.88;;;;;;;10.88;100.00;101640.72;4975884;28;20105;-51
2023/05/12 01:28:04;;;;;;;8.70;5.50;;;;;;;10.87;100.00;101644.22;4975730;28;20054;-46
2023/05/12 01:30:30;;;;;;;8.10;5.72;;;;;;;10.52;100.00;101573.88;4975885;28;20037;-46
2023/05/12 01:32:56;;;;;;;8.50;6.10;;;;;;;10.56;100.00;101572.91;4982855;28;20045;-45
2023/05/12 01:35:21;;;;;;;9.40;6.47;;;;;;;10.61;100.00;101589.47;4995387;28;20034;-46
2023/05/12 01:37:46;;;;;;;7.75;5.95;;;;;;;10.82;100.00;101629.44;5012916;28;20042;-46
2023/05/12 01:40:12;;;;;;;8.88;5.78;;;;;;;10.87;100.00;101638.97;5012483;28;20037;-46
2023/05/12 01:42:39;;;;;;;7.20;5.70;;;;;;;10.89;100.00;101646.81;5012639;28;20034;-46
2023/05/12 01:45:05;;;;;;;6.80;5.80;;;;;;;10.87;100.00;101643.34;4995147;28;20496;-44
2023/05/12 01:47:31;;;;;;;8.02;6.53;;;;;;;10.89;100.00;101646.81;5010241;28;20033;-44
2023/05/12 01:49:56;;;;;;;8.75;6.70;;;;;;;10.51;100.00;101569.50;4992710;28;20030;-47
2023/05/12 01:52:21;;;;;;;8.02;6.65;;;;;;;10.87;100.00;101643.34;4993136;28;20423;-45
2023/05/12 01:54:47;;;;;;;14.05;8.02;;;;;;;10.89;100.00;101644.19;4991601;28;20042;-46
2023/05/12 01:57:12;;;;;;;10.32;7.65;;;;;;;10.91;100.00;101643.28;4993011;28;20125;-44
2023/05/12 01:59:37;;;;;;;11.68;7.78;;;;;;;10.78;100.00;101627.75;4992277;28;20513;-44
2023/05/12 02:02:03;;;;;;;11.00;8.40;;;;;;;10.83;100.00;101631.19;4975546;28;20038;-44
2023/05/12 02:04:28;;;;;;;10.50;8.45;;;;;;;10.59;100.00;101582.50;4974290;28;20034;-46
2023/05/12 02:06:54;;;;;;;12.00;8.30;;;;;;;10.94;100.00;101640.59;4992753;28;20039;-47
2023/05/12 02:09:21;;;;;;;11.18;8.48;;;;;;;10.72;100.00;101605.91;5012442;28;20038;-43
2023/05/12 02:11:47;;;;;;;11.75;7.78;;;;;;;10.97;100.00;101632.63;5012364;28;20097;-46
2023/05/12 02:14:12;;;;;;;12.18;8.23;;;;;;;10.28;100.00;101515.59;5012353;28;20037;-46
2023/05/12 02:16:38;;;;;;;12.25;8.50;;;;;;;10.91;100.00;101640.66;4994526;28;20465;-47
2023/05/12 02:19:03;;;;;;;13.60;9.55;;;;;;;10.89;100.00;101631.00;4997138;28;20042;-45
2023/05/12 02:21:28;;;;;;;11.70;8.80;;;;;;;10.89;100.00;101639.78;5012981;28;20117;-44
2023/05/12 02:23:55;;;;;;;11.85;8.60;;;;;;;10.93;100.00;101630.06;4996390;28;20034;-45
2023/05/12 02:26:20;;;;;;;12.10;8.25;;;;;;;10.51;100.00;101551.06;4996517;28;20536;-45
2023/05/12 02:28:45;;;;;;;14.15;9.00;;;;;;;10.89;100.00;101613.44;4996500;28;20113;-45
2023/05/12 02:31:11;;;;;;;11.65;8.82;;;;;;;10.66;100.00;101584.97;4996514;28;20030;-44
2023/05/12 02:33:36;;;;;;;13.07;9.38;;;;;;;10.85;100.00;101613.56;4995386;28;20037;-43
2023/05/12 02:36:02;;;;;;;12.90;9.13;;;;;;;10.56;100.00;101570.28;4995064;28;20042;-45
2023/05/12 02:38:27;;;;;;;12.15;8.93;;;;;;;10.87;100.00;101617.03;4995492;28;20082;-45
2023/05/12 02:40:52;;;;;;;13.77;8.85;;;;;;;10.89;100.00;101615.22;4996238;28;20537;-45
2023/05/12 02:43:18;;;;;;;14.05;8.88;;;;;;;10.86;100.00;101618.78;4995006;28;20047;-43
2023/05/12 02:45:43;;;;;;;13.45;9.00;;;;;;;10.88;100.00;101616.13;4995874;28;20044;-44
2023/05/12 02:48:08;;;;;;;11.63;9.13;;;;;;;10.65;100.00;101574.50;4996350;28;20477;-45
2023/05/12 02:50:33;;;;;;;14.88;9.85;;;;;;;10.87;100.00;101628.44;5011383;28;20034;-44
2023/05/12 02:52:59;;;;;;;17.83;9.38;;;;;;;10.83;100.00;101612.75;5016085;28;20105;-47
2023/05/12 02:55:25;;;;;;;12.10;8.88;;;;;;;10.38;100.00;101546.97;5005647;28;20076;-46
2023/05/12 02:57:50;;;;;;;13.15;9.07;;;;;;;10.72;100.00;101605.03;4995868;28;20082;-46
2023/05/12 03:00:15;;;;;;;13.75;9.75;;;;;;;10.80;100.00;101620.69;4994973;28;20082;-48
2023/05/12 03:02:41;;;;;;;16.33;9.48;;;;;;;10.70;100.00;101580.53;5013677;28;20038;-44
2023/05/12 03:05:08;;;;;;;12.32;9.13;;;;;;;10.79;100.00;101606.66;5015307;28;20058;-49
2023/05/12 03:07:33;;;;;;;15.63;10.50;;;;;;;10.79;100.00;101598.75;4997820;28;20489;-44
2023/05/12 03:09:58;;;;;;;17.83;12.18;;;;;;;10.80;100.00;101595.22;5015290;28;20054;-46
2023/05/12 03:12:24;;;;;;;21.90;14.23;;;;;;;10.83;100.00;101599.56;5000540;28;20478;-46
2023/05/12 03:14:50;;;;;;;22.95;15.95;;;;;;;10.71;100.00;101591.00;4995483;28;20030;-47
2023/05/12 03:17:15;;;;;;;24.17;17.58;;;;;;;10.84;100.00;101599.53;4997533;28;20063;-44
2023/05/12 03:19:41;;;;;;;23.05;17.58;;;;;;;10.64;100.00;101556.94;5015326;28;20033;-51
2023/05/12 03:22:06;;;;;;;26.77;18.75;;;;;;;10.85;100.00;101584.59;4997522;28;20061;-48
2023/05/12 03:24:32;;;;;;;28.60;17.55;;;;;;;10.42;100.00;101511.78;5015046;28;20452;-43
2023/05/12 03:26:57;;;;;;;26.75;17.38;;;;;;;10.87;100.00;101577.50;4979615;28;20037;-44
2023/05/12 03:29:23;;;;;;;24.77;16.48;;;;;;;10.77;100.00;101561.03;5014384;28;20096;-44
2023/05/12 03:31:48;;;;;;;18.95;13.02;;;;;;;10.88;100.00;101580.13;5014719;28;20038;-45
2023/05/12 03:34:14;;;;;;;17.35;12.27;;;;;;;10.51;100.00;101522.09;5015160;28;20394;-45
2023/05/12 03:36:39;;;;;;;17.48;11.48;;;;;;;10.40;100.00;101503.06;5014863;28;20044;-47
2023/05/12 03:39:07;;;;;;;15.80;12.13;;;;;;;10.83;100.00;101574.06;5014824;28;20120;-46
2023/05/12 03:41:33;;;;;;;16.23;12.35;;;;;;;10.85;100.00;101568.78;4997729;28;20038;-46
2023/05/12 03:43:58;;;;;;;16.90;11.52;;;;;;;10.51;100.00;101519.47;5000459;28;20046;-46
2023/05/12 03:46:24;;;;;;;13.77;9.82;;;;;;;10.85;100.00;101585.47;4995184;28;20043;-46
2023/05/12 03:48:49;;;;;;;11.68;8.63;;;;;;;10.42;100.00;101509.13;4995360;28;20122;-46
2023/05/12 03:51:15;;;;;;;9.60;6.88;;;;;;;10.71;100.00;101564.66;4995096;28;20037;-45
2023/05/12 03:53:44;;;;;;;10.32;7.43;;;;;;;10.82;100.00;101579.38;5014427;28;20034;-46
2023/05/12 03:56:09;;;;;;;9.40;7.45;;;;;;;10.81;100.00;101577.66;5014298;28;20034;-44
2023/05/12 03:58:35;;;;;;;9.25;7.07;;;;;;;10.82;100.00;101587.28;5004310;28;20034;-46
2023/05/12 04:01:00;;;;;;;9.52;6.32;;;;;;;10.45;100.00;101518.78;4977443;28;20050;-46
2023/05/12 04:03:29;;;;;;;9.13;6.22;;;;;;;10.78;100.00;101567.19;4994953;28;20038;-46
2023/05/12 04:05:59;;;;;;;8.48;5.45;;;;;;;10.73;100.00;101564.66;4994529;28;20401;-47
2023/05/12 04:08:25;;;;;;;13.57;5.60;;;;;;;10.62;100.00;101551.69;4993653;28;20482;-46
2023/05/12 04:10:51;;;;;;;9.15;5.70;;;;;;;10.70;100.00;101570.84;4994791;28;20053;-44
2023/05/12 04:13:17;;;;;;;9.02;5.72;;;;;;;10.64;100.00;101573.63;4994514;28;20046;-44
2023/05/12 04:15:42;;;;;;;6.28;5.50;;;;;;;10.30;100.00;101506.78;4993421;28;20085;-46
2023/05/12 04:18:08;;;;;;;6.93;5.38;;;;;;;10.67;100.00;101570.06;4994571;28;20130;-47
2023/05/12 04:20:34;;;;;;;8.00;6.05;;;;;;;10.69;100.00;101589.31;4994295;28;20394;-49
2023/05/12 04:22:59;;;;;;;8.18;6.68;;;;;;;10.71;100.00;101580.47;4994349;28;20038;-46
2023/05/12 04:25:25;;;;;;;9.65;6.90;;;;;;;10.36;100.00;101511.91;4994178;28;20045;-45
2023/05/12 04:27:50;;;;;;;8.85;6.80;;;;;;;10.71;100.00;101577.84;4994305;28;20041;-45
2023/05/12 04:30:15;;;;;;;9.55;8.00;;;;;;;10.40;100.00;101517.97;5008115;28;20084;-45
2023/05/12 04:32:41;;;;;;;8.63;7.72;;;;;;;10.31;100.00;101500.59;5014253;28;20485;-49
2023/05/12 04:35:06;;;;;;;15.05;8.13;;;;;;;10.74;100.00;101572.50;4996157;28;20037;-45
2023/05/12 04:37:32;;;;;;;11.85;8.52;;;;;;;10.53;100.00;101543.16;5013855;28;20041;-45
2023/05/12 04:39:57;;;;;;;10.73;9.63;;;;;;;10.75;100.00;101586.53;5013610;28;20054;-46
2023/05/12 04:42:22;;;;;;;11.85;10.43;;;;;;;10.75;100.00;101576.00;5012548;28;20037;-46
2023/05/12 04:44:48;;;;;;;12.52;10.70;;;;;;;10.75;100.00;101568.13;5013495;28;20048;-46
2023/05/12 04:47:14;;;;;;;13.93;11.02;;;;;;;10.77;100.00;101586.53;5013699;28;20042;-47
2023/05/12 04:49:39;;;;;;;13.10;11.68;;;;;;;10.63;100.00;101542.03;5013345;28;20034;-46
2023/05/12 04:52:04;;;;;;;13.30;11.88;;;;;;;10.52;100.00;101529.13;5013317;28;20396;-46
2023/05/12 04:54:31;;;;;;;12.43;11.13;;;;;;;10.82;100.00;101582.03;4995669;28;20040;-47
2023/05/12 04:56:56;;;;;;;14.65;11.73;;;;;;;10.83;100.00;101583.78;4995822;28;20092;-49
2023/05/12 04:59:22;;;;;;;13.32;11.93;;;;;;;10.76;100.00;101575.13;4995958;28;20033;-47
2023/05/12 05:01:47;;;;;;;16.90;11.48;;;;;;;10.46;100.00;101526.63;5013089;28;20038;-49
2023/05/12 05:04:12;;;;;;;14.30;12.50;;;;;;;10.81;100.00;101594.31;5013402;28;20048;-47
2023/05/12 05:06:38;;;;;;;16.48;13.98;;;;;;;10.89;100.00;101594.13;5013248;28;20057;-49
2023/05/12 05:09:03;;;;;;;17.33;13.43;;;;;;;10.92;100.00;101596.72;5013344;28;20038;-45
2023/05/12 05:11:28;;;;;;;14.27;12.15;;;;;;;10.95;100.00;101591.38;5012965;28;20056;-45
2023/05/12 05:13:54;;;;;;;17.23;13.00;;;;;;;10.67;100.00;101538.47;4995736;28;20065;-47
2023/05/12 05:16:19;;;;;;;18.75;13.70;;;;;;;11.06;100.00;101599.94;5013179;28;20043;-46
2023/05/12 05:18:45;;;;;;;16.98;13.57;;;;;;;10.67;100.00;101538.47;5013259;28;20033;-46
2023/05/12 05:21:13;;;;;;;19.20;14.82;;;;;;;11.03;100.00;101603.47;5012634;28;20038;-45
2023/05/12 05:23:39;;;;;;;22.88;15.77;;;;;;;10.95;100.00;101586.97;5012797;28;20040;-46
2023/05/12 05:26:05;;;;;;;25.35;17.15;;;;;;;11.08;100.00;101593.72;4995192;28;20112;-45
2023/05/12 05:28:30;;;;;;;27.33;18.02;;;;;;;11.08;100.00;101598.13;4995440;28;20496;-47
2023/05/12 05:30:55;;;;;;;32.03;18.08;;;;;;;11.13;100.00;101601.50;5012746;28;20045;-49
2023/05/12 05:33:21;;;;;;;29.38;18.55;;;;;;;11.08;100.00;101587.59;5013194;28;20037;-46
2023/05/12 05:35:46;;;;;;;33.22;20.20;;;;;;;11.08;100.00;101596.38;5012839;28;20030;-46
2023/05/12 05:38:12;;;;;;;31.33;20.10;;;;;;;11.23;100.00;101611.84;5012826;28;20130;-46
2023/05/12 05:40:37;;;;;;;32.30;21.38;;;;;;;10.61;100.00;101497.34;4995365;28;20481;-46
2023/05/12 05:43:02;;;;;;;38.85;23.08;;;;;;;11.24;100.00;101612.66;5012908;28;20026;-46
2023/05/12 05:45:28;;;;;;;43.92;24.70;;;;;;;11.26;100.00;101622.31;5012613;28;20527;-44
2023/05/12 05:47:53;;;;;;;46.42;24.95;;;;;;;11.34;100.00;101622.13;5012705;28;20057;-47
2023/05/12 05:50:19;;;;;;;50.97;28.05;;;;;;;11.07;100.00;101564.75;5012734;28;20041;-44
2023/05/12 05:52:44;;;;;;;53.75;29.95;;;;;;;11.29;100.00;101605.56;5012301;28;20034;-44
2023/05/12 05:55:09;;;;;;;68.05;34.65;;;;;;;11.43;100.00;101623.66;5012807;28;20432;-44
2023/05/12 05:57:35;;;;;;;80.97;38.03;;;;;;;11.47;100.00;101627.97;5012856;28;20473;-45
2023/05/12 06:00:00;;;;;;;78.40;40.88;;;;;;;11.35;100.00;101601.91;5012399;28;20428;-44
2023/05/12 06:02:25;;;;;;;86.85;40.88;;;;;;;11.17;100.00;101566.31;5012469;28;20041;-46
2023/05/12 06:04:51;;;;;;;81.90;42.45;;;;;;;11.60;100.00;101632.03;5012602;28;20050;-46
2023/05/12 06:07:16;;;;;;;85.75;41.25;;;;;;;11.58;100.00;101625.94;5012578;28;20042;-46
2023/05/12 06:09:42;;;;;;;79.38;42.25;;;;;;;11.59;100.00;101625.03;5012235;28;20489;-44
2023/05/12 06:12:07;;;;;;;84.10;40.80;;;;;;;11.38;100.00;101575.47;5012544;28;20503;-44
2023/05/12 06:14:33;;;;;;;88.25;41.50;;;;;;;11.40;100.00;101568.38;5012631;28;20468;-44
2023/05/12 06:16:58;;;;;;;82.32;41.95;;;;;;;11.52;100.00;101594.47;5012546;28;20030;-51
2023/05/12 06:19:23;;;;;;;92.05;43.28;;;;;;;11.81;100.00;101642.13;5012610;28;20030;-48
2023/05/12 06:21:51;;;;;;;82.53;42.40;;;;;;;11.76;100.00;101633.47;4994214;28;20034;-46
2023/05/12 06:24:16;;;;;;;84.22;40.92;;;;;;;11.94;100.00;101642.69;5012046;28;20044;-46
2023/05/12 06:26:42;;;;;;;81.60;41.40;;;;;;;11.89;100.00;101624.31;5012303;28;20038;-48
2023/05/12 06:29:07;;;;;;;74.15;38.60;;;;;;;11.94;100.00;101637.41;5012392;28;20045;-50
2023/05/12 06:31:33;;;;;;;82.25;41.78;;;;;;;11.98;100.00;101639.03;5012047;28;20062;-46
2023/05/12 06:33:58;;;;;;;80.65;39.83;;;;;;;12.06;100.00;101632.66;5012409;28;20030;-46
2023/05/12 06:36:24;;;;;;;73.28;40.80;;;;;;;12.08;100.00;101630.88;5012217;28;20026;-46
2023/05/12 06:38:49;;;;;;;65.53;37.88;;;;;;;12.19;100.00;101639.38;5012188;28;20413;-46
2023/05/12 06:41:15;;;;;;;71.75;40.03;;;;;;;12.36;100.00;101639.78;4994855;28;20465;-46
2023/05/12 06:43:41;;;;;;;68.85;38.63;;;;;;;12.67;100.00;101631.00;5012224;28;20069;-47
2023/05/12 06:46:07;;;;;;;70.45;39.30;;;;;;;12.68;100.00;101612.47;4994809;28;20112;-45
2023/05/12 06:48:32;;;;;;;62.60;37.20;;;;;;;12.59;100.00;101574.88;5012462;28;20034;-47
2023/05/12 06:50:58;;;;;;;58.63;35.50;;;;;;;13.14;100.00;101629.63;5011929;28;20026;-46
2023/05/12 06:53:23;;;;;;;55.67;33.88;;;;;;;13.37;100.00;101632.44;5010687;28;20026;-46
2023/05/12 06:55:49;;;;;;;53.25;33.92;;;;;;;13.62;100.00;101637.81;5012014;28;20041;-44
2023/05/12 06:58:15;;;;;;;41.60;29.25;;;;;;;13.55;100.00;101631.84;5012269;28;20034;-44
2023/05/12 07:00:40;;;;;;;39.05;28.83;;;;;;;13.47;100.00;101631.25;4994453;28;20038;-45
2023/05/12 07:03:08;;;;;;;39.40;28.05;;;;;;;13.67;100.00;101618.25;5011965;28;20401;-47
2023/05/12 07:05:34;;;;;;;32.03;25.38;;;;;;;13.76;100.00;101622.34;5014629;28;20492;-41
2023/05/12 07:08:00;;;;;;;31.35;24.98;;;;;;;13.85;100.00;101630.88;5015385;28;20062;-45
2023/05/12 07:10:25;;;;;;;33.22;23.92;;;;;;;13.74;100.00;101633.00;5015559;28;20057;-45
2023/05/12 07:12:50;;;;;;;29.25;22.65;;;;;;;13.71;100.00;101634.88;4997977;28;20105;-45
2023/05/12 07:15:16;;;;;;;29.08;20.88;;;;;;;13.37;100.00;101591.00;4997649;28;20030;-49
2023/05/12 07:17:41;;;;;;;23.98;20.25;;;;;;;13.48;100.00;101585.38;5015393;28;20041;-46
2023/05/12 07:20:08;;;;;;;25.10;20.58;;;;;;;13.95;100.00;101644.66;5014063;28;20037;-47
2023/05/12 07:22:33;;;;;;;23.00;18.83;;;;;;;14.06;100.00;101645.16;4990590;28;20058;-45
2023/05/12 07:24:59;;;;;;;23.23;19.02;;;;;;;14.07;100.00;101647.75;4995179;28;20076;-42
2023/05/12 07:27:24;;;;;;;25.05;19.35;;;;;;;14.05;100.00;101657.53;4995619;28;20031;-48
2023/05/12 07:29:50;;;;;;;23.20;18.52;;;;;;;14.10;100.00;101665.31;4995298;28;20117;-45
2023/05/12 07:32:15;;;;;;;23.23;19.38;;;;;;;13.74;100.00;101611.84;4993122;28;20038;-44
2023/05/12 07:34:40;;;;;;;23.08;18.65;;;;;;;14.08;100.00;101662.72;4991416;28;20057;-48
2023/05/12 07:37:06;;;;;;;21.63;18.02;;;;;;;14.12;100.00;101671.44;4992165;28;20034;-44
2023/05/12 07:39:31;;;;;;;24.27;19.17;;;;;;;14.27;100.00;101664.75;4990136;28;20182;-43
2023/05/12 07:41:58;;;;;;;21.15;18.60;;;;;;;14.29;100.00;101674.38;4988650;28;20505;-48
2023/05/12 07:44:24;;;;;;;21.77;18.63;;;;;;;14.10;100.00;101599.13;4972775;28;20026;-47
2023/05/12 07:46:49;;;;;;;22.52;19.38;;;;;;;14.53;100.00;101662.09;4992298;28;20042;-45
2023/05/12 07:49:14;;;;;;;21.40;19.10;;;;;;;14.54;100.00;101667.31;4993154;28;20451;-48
2023/05/12 07:51:40;;;;;;;20.83;17.70;;;;;;;14.78;100.00;101678.81;4993278;28;20033;-43
2023/05/12 07:54:06;;;;;;;21.48;18.85;;;;;;;14.91;100.00;101676.59;4992910;28;20105;-43
2023/05/12 07:56:31;;;;;;;19.95;17.10;;;;;;;15.20;100.00;101666.63;4993456;28;20038;-46
2023/05/12 07:58:57;;;;;;;23.17;18.65;;;;;;;15.45;100.00;101684.22;4993355;28;20398;-44
2023/05/12 08:01:22;;;;;;;20.25;18.15;;;;;;;15.39;100.00;101682.69;4975522;28;20054;-46
2023/05/12 08:03:49;;;;;;;18.52;16.33;;;;;;;14.95;100.00;101636.66;4993079;28;20075;-47
2023/05/12 08:06:15;;;;;;;23.27;18.58;;;;;;;15.10;100.00;101636.06;4993242;28;20061;-46
2023/05/12 08:08:41;;;;;;;21.55;17.67;;;;;;;15.62;100.00;101695.94;4975799;28;20061;-45
2023/05/12 08:11:06;;;;;;;19.25;17.23;;;;;;;15.59;100.00;101700.50;4993191;28;20069;-46
2023/05/12 08:13:31;;;;;;;18.20;16.30;;;;;;;15.58;100.00;101694.34;4993047;28;20039;-45
2023/05/12 08:15:56;;;;;;;19.83;17.73;;;;;;;15.67;100.00;101701.94;4993120;28;20049;-47
2023/05/12 08:18:22;;;;;;;19.65;16.92;;;;;;;15.83;100.00;101720.78;4992905;28;20042;-50
2023/05/12 08:20:49;;;;;;;20.85;18.20;;;;;;;15.52;100.00;101638.88;4993018;28;20131;-44
2023/05/12 08:23:16;;;;;;;22.10;17.88;;;;;;;15.87;100.00;101658.66;4993391;28;20405;-45
2023/05/12 08:25:43;;;;;;;19.35;17.02;;;;;;;16.13;100.00;101713.34;4993184;28;20073;-46
2023/05/12 08:28:09;;;;;;;21.17;16.70;;;;;;;15.92;100.00;101712.44;4992656;28;20405;-46
2023/05/12 08:30:34;;;;;;;21.10;18.48;;;;;;;15.75;100.00;101678.63;4992851;28;20105;-46
2023/05/12 08:33:00;;;;;;;19.30;17.17;;;;;;;15.89;100.00;101704.59;4975173;28;20046;-45
2023/05/12 08:35:26;;;;;;;19.23;17.23;;;;;;;15.89;100.00;101707.25;4975423;28;20401;-44
2023/05/12 08:37:52;;;;;;;21.42;18.15;;;;;;;16.07;100.00;101730.41;4992812;28;20061;-44
2023/05/12 08:40:20;;;;;;;20.42;17.10;;;;;;;15.83;100.00;101667.69;4992809;28;20073;-45
2023/05/12 08:43:25;;;;;;;21.23;17.17;;;;;;;16.31;100.00;101731.19;4992746;28;20030;-45
2023/05/12 08:45:56;;;;;;;21.15;18.17;;;;;;;16.58;100.00;101727.38;4990036;28;20498;-46
2023/05/12 08:48:22;;;;;;;19.48;17.48;;;;;;;16.80;100.00;101730.84;4975281;28;20505;-45
2023/05/12 08:50:49;;;;;;;19.05;17.05;;;;;;;16.80;100.00;101674.13;4974759;28;20270;-45
2023/05/12 08:53:17;;;;;;;20.15;17.48;;;;;;;17.02;100.00;101708.59;4992412;28;20034;-46
2023/05/12 08:55:42;;;;;;;18.48;16.30;;;;;;;16.70;100.00;101691.41;4975169;28;20113;-44
2023/05/12 08:58:08;;;;;;;21.23;17.38;;;;;;;17.09;100.00;101745.50;4975100;28;20129;-44
2023/05/12 09:00:35;;;;;;;19.17;16.45;;;;;;;17.32;100.00;101733.81;4958696;28;20253;-44
2023/05/12 09:03:01;;;;;;;20.23;17.75;;;;;;;17.56;100.00;101718.53;4992095;28;20046;-44
2023/05/12 09:05:28;;;;;;;18.70;16.05;;;;;;;17.93;100.00;101737.13;4974379;28;20042;-47
2023/05/12 09:07:54;;;;;;;18.17;16.00;;;;;;;18.04;100.00;101686.00;4991913;28;20097;-46
2023/05/12 09:10:21;;;;;;;19.80;16.40;;;;;;;18.29;100.00;101700.66;4990294;28;20046;-49
2023/05/12 09:12:46;;;;;;;16.65;14.95;;;;;;;18.36;100.00;101746.50;4974398;28;20559;-50
2023/05/12 09:15:17;;;;;;;17.55;15.77;;;;;;;18.97;100.00;101749.59;4991513;28;20039;-46
2023/05/12 09:17:43;;;;;;;16.38;14.25;;;;;;;19.13;100.00;101721.16;4991675;28;20027;-48
2023/05/12 09:20:09;;;;;;;17.70;15.82;;;;;;;19.20;100.00;101753.72;4992057;28;20474;-46
2023/05/12 09:22:34;;;;;;;17.30;15.50;;;;;;;18.60;100.00;101707.97;4991372;28;20100;-48
2023/05/12 09:25:00;;;;;;;16.60;14.95;;;;;;;19.14;100.00;101744.22;4991473;28;20490;-46
2023/05/12 09:27:29;;;;;;;16.35;14.65;;;;;;;19.39;100.00;101698.41;4973370;28;20034;-46
2023/05/12 09:29:54;;;;;;;14.55;13.25;;;;;;;19.17;100.00;101697.81;4991194;28;20026;-47
2023/05/12 09:32:31;;;;;;;14.65;13.13;;;;;;;19.94;100.00;101763.81;4968510;28;20683;-48
2023/05/12 09:35:02;;;;;;;16.95;14.88;;;;;;;19.70;100.00;101714.44;4986875;28;20076;-50
2023/05/12 09:37:32;;;;;;;16.25;14.65;;;;;;;20.15;100.00;101773.28;4971094;28;20509;-49
2023/05/12 09:40:05;;;;;;;15.85;14.25;;;;;;;20.29;100.00;101759.13;4985078;28;20143;-47
2023/05/12 09:42:33;;;;;;;15.02;13.52;;;;;;;19.87;100.00;101714.34;4990704;28;20038;-50
2023/05/12 09:45:03;;;;;;;15.93;14.27;;;;;;;19.72;100.00;101722.38;4971613;28;20096;-46
2023/05/12 09:47:38;;;;;;;15.15;13.70;;;;;;;19.85;100.00;101718.06;4969515;28;20390;-47
2023/05/12 09:50:05;;;;;;;15.98;14.38;;;;;;;20.07;100.00;101753.28;4988926;28;20038;-49
2023/05/12 09:52:38;;;;;;;17.05;14.77;;;;;;;19.62;100.00;101762.06;4979417;28;20092;-46
2023/05/12 09:55:11;;;;;;;16.33;14.82;;;;;;;19.90;100.00;101729.34;4980518;28;20041;-46
2023/05/12 09:57:41;;;;;;;15.52;13.95;;;;;;;20.39;100.00;101706.00;4984843;28;20042;-46
2023/05/12 10:00:08;;;;;;;15.70;14.13;;;;;;;20.80;100.00;101731.13;4979019;28;20471;-46
2023/05/12 10:02:34;;;;;;;13.98;12.57;;;;;;;21.37;100.00;101768.66;4987670;28;20494;-48
2023/05/12 10:05:01;;;;;;;15.63;14.02;;;;;;;22.54;100.00;101767.22;4973242;28;20041;-46
2023/05/12 10:07:27;;;;;;;13.95;12.60;;;;;;;22.98;100.00;101774.00;4972232;28;20030;-47
2023/05/12 10:09:54;;;;;;;16.13;14.52;;;;;;;22.75;100.00;101784.59;4988922;28;20493;-48
2023/05/12 10:12:19;;;;;;;15.10;13.68;;;;;;;22.12;100.00;101785.25;4970440;28;20219;-51
2023/05/12 10:14:45;;;;;;;16.50;15.00;;;;;;;21.30;100.00;101786.94;4971614;28;20038;-49
2023/05/12 10:17:11;;;;;;;16.73;15.02;;;;;;;20.16;100.00;101747.41;4938027;28;20121;-46
2023/05/12 10:19:37;;;;;;;16.27;14.55;;;;;;;20.13;100.00;101712.84;4971158;28;20138;-52
2023/05/12 10:22:03;;;;;;;16.40;14.77;;;;;;;20.59;100.00;101711.00;4971345;28;20030;-47
2023/05/12 10:24:28;;;;;;;15.60;14.00;;;;;;;21.21;100.00;101774.13;4971364;28;20042;-49
2023/05/12 10:26:55;;;;;;;14.75;13.25;;;;;;;21.59;100.00;101772.59;4975516;28;20541;-48
2023/05/12 10:29:21;;;;;;;15.43;13.82;;;;;;;21.10;100.00;101773.94;4965850;28;20042;-49
2023/05/12 10:31:47;;;;;;;15.77;14.13;;;;;;;21.14;100.00;101768.28;4972574;28;20173;-50
2023/05/12 10:34:20;;;;;;;15.73;14.23;;;;;;;21.68;100.00;101779.16;4956635;28;20065;-53
2023/05/12 10:36:48;;;;;;;16.42;14.85;;;;;;;21.65;100.00;101780.22;4972558;28;20043;-48
2023/05/12 10:39:14;;;;;;;15.10;13.70;;;;;;;21.71;100.00;101787.00;4970424;28;20050;-46
2023/05/12 10:41:40;;;;;;;14.88;13.43;;;;;;;21.54;100.00;101720.25;4975899;28;20045;-47
2023/05/12 10:44:05;;;;;;;16.55;14.98;;;;;;;21.74;100.00;101746.63;4976488;28;20034;-49
2023/05/12 10:46:31;;;;;;;16.27;14.75;;;;;;;22.03;100.00;101788.50;4971528;28;20034;-47
2023/05/12 10:49:02;;;;;;;14.73;13.32;;;;;;;21.97;100.00;101780.00;4993058;28;20042;-49
2023/05/12 10:51:32;;;;;;;15.65;12.35;;;;;;;22.13;100.00;101765.47;4974999;28;20113;-47
2023/05/12 10:54:18;;;;;;;14.20;12.87;;;;;;;22.31;100.00;101790.22;4988350;28;20065;-46
2023/05/12 10:56:44;;;;;;;14.02;12.68;;;;;;;22.44;100.00;101778.56;4993839;28;20324;-51
2023/05/12 10:59:17;;;;;;;14.50;13.20;;;;;;;22.43;100.00;101792.09;4993517;28;20050;-46
2023/05/12 11:01:59;;;;;;;14.32;12.98;;;;;;;22.06;100.00;101788.31;4993041;28;20367;-49